sensor_id;sensor_type;location;lat;lon;timestamp;P1;durP1;ratioP1;P2;durP2;ratioP2
703;SDS011;335;48.694;9.120;2023-05-21T00:00:08;18.43;;;16.47;;
703;SDS011;335;48.694;9.120;2023-05-21T00:02:36;18.03;;;16.33;;
703;SDS011;335;48.694;9.120;2023-05-21T00:05:02;19.00;;;17.37;;
703;SDS011;335;48.694;9.120;2023-05-21T00:07:28;19.00;;;17.20;;
703;SDS011;335;48.694;9.120;2023-05-21T00:09:55;16.73;;;15.27;;
703;SDS011;335;48.694;9.120;2023-05-21T00:12:20;16.73;;;15.27;;
703;SDS011;335;48.694;9.120;2023-05-21T00:14:46;18.30;;;16.80;;
703;SDS011;335;48.694;9.120;2023-05-21T00:17:11;18.23;;;16.70;;
703;SDS011;335;48.694;9.120;2023-05-21T00:19:36;19.20;;;17.47;;
703;SDS011;335;48.694;9.120;2023-05-21T00:22:03;18.80;;;17.10;;
703;SDS011;335;48.694;9.120;2023-05-21T00:24:29;20.07;;;18.13;;
703;SDS011;335;48.694;9.120;2023-05-21T00:26:54;19.53;;;17.83;;
703;SDS011;335;48.694;9.120;2023-05-21T00:29:20;19.73;;;17.93;;
703;SDS011;335;48.694;9.120;2023-05-21T00:31:46;18.80;;;16.80;;
703;SDS011;335;48.694;9.120;2023-05-21T00:34:12;19.43;;;17.63;;
703;SDS011;335;48.694;9.120;2023-05-21T00:36:37;20.67;;;18.77;;
703;SDS011;335;48.694;9.120;2023-05-21T00:39:04;18.80;;;16.93;;
703;SDS011;335;48.694;9.120;2023-05-21T00:41:29;18.57;;;16.90;;
703;SDS011;335;48.694;9.120;2023-05-21T00:43:55;19.10;;;17.20;;
703;SDS011;335;48.694;9.120;2023-05-21T00:46:21;21.57;;;19.33;;
703;SDS011;335;48.694;9.120;2023-05-21T00:48:46;21.03;;;18.90;;
703;SDS011;335;48.694;9.120;2023-05-21T00:51:12;21.73;;;19.50;;
703;SDS011;335;48.694;9.120;2023-05-21T00:53:38;21.13;;;19.10;;
703;SDS011;335;48.694;9.120;2023-05-21T00:56:03;20.10;;;18.27;;
703;SDS011;335;48.694;9.120;2023-05-21T00:58:29;20.47;;;18.60;;
703;SDS011;335;48.694;9.120;2023-05-21T01:00:57;20.17;;;18.33;;
703;SDS011;335;48.694;9.120;2023-05-21T01:03:22;19.37;;;17.70;;
703;SDS011;335;48.694;9.120;2023-05-21T01:05:49;19.93;;;18.13;;
703;SDS011;335;48.694;9.120;2023-05-21T01:08:17;20.17;;;18.27;;
703;SDS011;335;48.694;9.120;2023-05-21T01:10:46;18.37;;;16.67;;
703;SDS011;335;48.694;9.120;2023-05-21T01:13:13;19.30;;;17.57;;
703;SDS011;335;48.694;9.120;2023-05-21T01:15:40;19.60;;;17.57;;
703;SDS011;335;48.694;9.120;2023-05-21T01:18:06;21.30;;;19.20;;
703;SDS011;335;48.694;9.120;2023-05-21T01:20:31;21.23;;;19.33;;
703;SDS011;335;48.694;9.120;2023-05-21T01:22:57;19.93;;;17.83;;
703;SDS011;335;48.694;9.120;2023-05-21T01:25:22;19.37;;;17.57;;
703;SDS011;335;48.694;9.120;2023-05-21T01:27:48;22.40;;;20.00;;
703;SDS011;335;48.694;9.120;2023-05-21T01:30:14;20.40;;;18.50;;
703;SDS011;335;48.694;9.120;2023-05-21T01:35:21;19.67;;;17.90;;
703;SDS011;335;48.694;9.120;2023-05-21T01:42:47;20.00;;;18.20;;
703;SDS011;335;48.694;9.120;2023-05-21T01:45:16;20.53;;;18.67;;
703;SDS011;335;48.694;9.120;2023-05-21T01:47:43;22.90;;;20.67;;
703;SDS011;335;48.694;9.120;2023-05-21T01:50:09;21.47;;;19.47;;
703;SDS011;335;48.694;9.120;2023-05-21T01:52:35;21.17;;;19.27;;
703;SDS011;335;48.694;9.120;2023-05-21T01:55:01;21.43;;;19.53;;
703;SDS011;335;48.694;9.120;2023-05-21T01:57:27;22.87;;;20.67;;
703;SDS011;335;48.694;9.120;2023-05-21T01:59:52;22.70;;;20.50;;
703;SDS011;335;48.694;9.120;2023-05-21T02:02:18;21.57;;;19.50;;
703;SDS011;335;48.694;9.120;2023-05-21T02:04:44;21.17;;;19.27;;
703;SDS011;335;48.694;9.120;2023-05-21T02:07:10;23.80;;;21.50;;
703;SDS011;335;48.694;9.120;2023-05-21T02:09:38;22.23;;;20.23;;
703;SDS011;335;48.694;9.120;2023-05-21T02:12:04;21.77;;;19.67;;
703;SDS011;335;48.694;9.120;2023-05-21T02:14:29;21.87;;;19.77;;
703;SDS011;335;48.694;9.120;2023-05-21T02:16:57;21.80;;;19.70;;
703;SDS011;335;48.694;9.120;2023-05-21T02:19:23;21.70;;;19.60;;
703;SDS011;335;48.694;9.120;2023-05-21T02:21:48;22.77;;;20.47;;
703;SDS011;335;48.694;9.120;2023-05-21T02:24:13;23.50;;;21.10;;
703;SDS011;335;48.694;9.120;2023-05-21T02:26:39;23.67;;;21.30;;
703;SDS011;335;48.694;9.120;2023-05-21T02:29:05;23.00;;;20.77;;
703;SDS011;335;48.694;9.120;2023-05-21T02:31:30;23.60;;;21.30;;
703;SDS011;335;48.694;9.120;2023-05-21T02:33:56;23.80;;;21.60;;
703;SDS011;335;48.694;9.120;2023-05-21T02:36:21;22.60;;;20.30;;
703;SDS011;335;48.694;9.120;2023-05-21T02:38:49;22.50;;;19.53;;
703;SDS011;335;48.694;9.120;2023-05-21T02:41:14;25.13;;;22.63;;
703;SDS011;335;48.694;9.120;2023-05-21T02:43:39;22.70;;;20.60;;
703;SDS011;335;48.694;9.120;2023-05-21T02:46:05;23.30;;;20.97;;
703;SDS011;335;48.694;9.120;2023-05-21T02:48:30;23.43;;;21.10;;
703;SDS011;335;48.694;9.120;2023-05-21T02:50:57;24.83;;;22.23;;
703;SDS011;335;48.694;9.120;2023-05-21T02:53:23;23.77;;;21.37;;
703;SDS011;335;48.694;9.120;2023-05-21T02:55:48;23.73;;;21.53;;
703;SDS011;335;48.694;9.120;2023-05-21T02:58:13;22.93;;;20.83;;
703;SDS011;335;48.694;9.120;2023-05-21T03:00:39;23.23;;;21.03;;
703;SDS011;335;48.694;9.120;2023-05-21T03:03:04;22.13;;;20.03;;
703;SDS011;335;48.694;9.120;2023-05-21T03:05:29;23.83;;;21.53;;
703;SDS011;335;48.694;9.120;2023-05-21T03:07:55;21.47;;;19.30;;
703;SDS011;335;48.694;9.120;2023-05-21T03:10:21;23.90;;;21.50;;
703;SDS011;335;48.694;9.120;2023-05-21T03:12:46;26.23;;;23.67;;
703;SDS011;335;48.694;9.120;2023-05-21T03:15:11;22.77;;;20.50;;
703;SDS011;335;48.694;9.120;2023-05-21T03:17:39;23.67;;;21.27;;
703;SDS011;335;48.694;9.120;2023-05-21T03:20:06;24.57;;;22.17;;
703;SDS011;335;48.694;9.120;2023-05-21T03:22:33;24.00;;;21.70;;
703;SDS011;335;48.694;9.120;2023-05-21T03:24:58;25.83;;;23.17;;
703;SDS011;335;48.694;9.120;2023-05-21T03:27:24;23.93;;;21.63;;
703;SDS011;335;48.694;9.120;2023-05-21T03:29:50;25.07;;;22.67;;
703;SDS011;335;48.694;9.120;2023-05-21T03:32:15;24.57;;;22.27;;
703;SDS011;335;48.694;9.120;2023-05-21T03:34:41;25.70;;;23.30;;
703;SDS011;335;48.694;9.120;2023-05-21T03:37:06;25.93;;;23.43;;
703;SDS011;335;48.694;9.120;2023-05-21T03:39:31;25.23;;;22.60;;
703;SDS011;335;48.694;9.120;2023-05-21T03:41:57;26.27;;;23.63;;
703;SDS011;335;48.694;9.120;2023-05-21T03:44:22;24.27;;;21.80;;
703;SDS011;335;48.694;9.120;2023-05-21T03:46:47;23.67;;;21.50;;
703;SDS011;335;48.694;9.120;2023-05-21T03:49:13;24.40;;;22.20;;
703;SDS011;335;48.694;9.120;2023-05-21T03:51:38;25.00;;;22.50;;
703;SDS011;335;48.694;9.120;2023-05-21T03:54:03;23.10;;;20.70;;
703;SDS011;335;48.694;9.120;2023-05-21T03:56:28;25.67;;;23.00;;
703;SDS011;335;48.694;9.120;2023-05-21T03:58:54;23.67;;;21.23;;
703;SDS011;335;48.694;9.120;2023-05-21T04:01:19;23.97;;;21.80;;
703;SDS011;335;48.694;9.120;2023-05-21T04:03:45;22.50;;;20.50;;
703;SDS011;335;48.694;9.120;2023-05-21T04:06:10;22.33;;;20.17;;
703;SDS011;335;48.694;9.120;2023-05-21T04:08:35;22.77;;;20.67;;
703;SDS011;335;48.694;9.120;2023-05-21T04:11:01;22.33;;;20.20;;
703;SDS011;335;48.694;9.120;2023-05-21T04:13:27;24.13;;;21.80;;
703;SDS011;335;48.694;9.120;2023-05-21T04:15:52;24.03;;;21.03;;
703;SDS011;335;48.694;9.120;2023-05-21T04:18:18;25.20;;;22.73;;
703;SDS011;335;48.694;9.120;2023-05-21T04:20:47;22.97;;;20.77;;
703;SDS011;335;48.694;9.120;2023-05-21T04:23:14;23.77;;;21.50;;
703;SDS011;335;48.694;9.120;2023-05-21T04:25:39;24.77;;;22.30;;
703;SDS011;335;48.694;9.120;2023-05-21T04:28:04;25.17;;;22.67;;
703;SDS011;335;48.694;9.120;2023-05-21T04:30:30;22.70;;;20.40;;
703;SDS011;335;48.694;9.120;2023-05-21T04:32:55;24.63;;;22.20;;
703;SDS011;335;48.694;9.120;2023-05-21T04:35:21;23.37;;;20.97;;
703;SDS011;335;48.694;9.120;2023-05-21T04:37:47;25.87;;;23.40;;
703;SDS011;335;48.694;9.120;2023-05-21T04:40:12;22.13;;;19.93;;
703;SDS011;335;48.694;9.120;2023-05-21T04:42:42;25.30;;;22.80;;
703;SDS011;335;48.694;9.120;2023-05-21T04:45:10;25.23;;;22.90;;
703;SDS011;335;48.694;9.120;2023-05-21T04:47:36;24.67;;;22.23;;
703;SDS011;335;48.694;9.120;2023-05-21T04:50:01;23.57;;;21.20;;
703;SDS011;335;48.694;9.120;2023-05-21T04:52:28;23.10;;;20.80;;
703;SDS011;335;48.694;9.120;2023-05-21T04:54:54;22.33;;;20.20;;
703;SDS011;335;48.694;9.120;2023-05-21T04:57:20;25.60;;;23.00;;
703;SDS011;335;48.694;9.120;2023-05-21T04:59:45;22.13;;;20.03;;
703;SDS011;335;48.694;9.120;2023-05-21T05:02:11;22.70;;;20.53;;
703;SDS011;335;48.694;9.120;2023-05-21T05:04:37;23.20;;;20.90;;
703;SDS011;335;48.694;9.120;2023-05-21T05:07:02;21.23;;;19.03;;
703;SDS011;335;48.694;9.120;2023-05-21T05:09:27;22.90;;;20.70;;
703;SDS011;335;48.694;9.120;2023-05-21T05:11:54;23.53;;;21.10;;
703;SDS011;335;48.694;9.120;2023-05-21T05:14:19;23.70;;;21.30;;
703;SDS011;335;48.694;9.120;2023-05-21T05:16:45;22.60;;;20.40;;
703;SDS011;335;48.694;9.120;2023-05-21T05:19:12;21.60;;;19.57;;
703;SDS011;335;48.694;9.120;2023-05-21T05:21:37;23.70;;;21.50;;
703;SDS011;335;48.694;9.120;2023-05-21T05:24:03;21.97;;;20.00;;
703;SDS011;335;48.694;9.120;2023-05-21T05:26:28;22.40;;;20.20;;
703;SDS011;335;48.694;9.120;2023-05-21T05:28:53;20.53;;;18.73;;
703;SDS011;335;48.694;9.120;2023-05-21T05:31:19;21.33;;;19.30;;
703;SDS011;335;48.694;9.120;2023-05-21T05:33:44;21.73;;;19.47;;
703;SDS011;335;48.694;9.120;2023-05-21T05:36:11;20.87;;;18.77;;
703;SDS011;335;48.694;9.120;2023-05-21T05:38:36;20.47;;;18.70;;
703;SDS011;335;48.694;9.120;2023-05-21T05:41:01;21.13;;;19.30;;
703;SDS011;335;48.694;9.120;2023-05-21T05:43:27;20.60;;;18.40;;
703;SDS011;335;48.694;9.120;2023-05-21T05:45:52;20.37;;;18.57;;
703;SDS011;335;48.694;9.120;2023-05-21T05:48:17;19.80;;;18.07;;
703;SDS011;335;48.694;9.120;2023-05-21T05:50:43;18.90;;;17.20;;
703;SDS011;335;48.694;9.120;2023-05-21T05:53:09;20.40;;;18.60;;
703;SDS011;335;48.694;9.120;2023-05-21T05:55:37;18.87;;;17.17;;
703;SDS011;335;48.694;9.120;2023-05-21T05:58:02;18.77;;;17.10;;
703;SDS011;335;48.694;9.120;2023-05-21T06:00:27;18.93;;;17.23;;
703;SDS011;335;48.694;9.120;2023-05-21T06:02:53;18.23;;;16.60;;
703;SDS011;335;48.694;9.120;2023-05-21T06:05:18;19.87;;;18.03;;
703;SDS011;335;48.694;9.120;2023-05-21T06:07:43;19.57;;;17.87;;
703;SDS011;335;48.694;9.120;2023-05-21T06:10:09;18.73;;;17.10;;
703;SDS011;335;48.694;9.120;2023-05-21T06:12:35;18.63;;;16.90;;
703;SDS011;335;48.694;9.120;2023-05-21T06:15:00;17.80;;;16.10;;
703;SDS011;335;48.694;9.120;2023-05-21T06:17:26;17.30;;;15.83;;
703;SDS011;335;48.694;9.120;2023-05-21T06:19:51;17.70;;;15.90;;
703;SDS011;335;48.694;9.120;2023-05-21T06:22:16;17.00;;;15.37;;
703;SDS011;335;48.694;9.120;2023-05-21T06:24:41;18.70;;;17.00;;
703;SDS011;335;48.694;9.120;2023-05-21T06:27:07;17.37;;;15.87;;
703;SDS011;335;48.694;9.120;2023-05-21T06:29:32;16.40;;;15.07;;
703;SDS011;335;48.694;9.120;2023-05-21T06:31:57;16.33;;;14.93;;
703;SDS011;335;48.694;9.120;2023-05-21T06:34:23;16.90;;;15.50;;
703;SDS011;335;48.694;9.120;2023-05-21T06:36:49;18.47;;;16.87;;
703;SDS011;335;48.694;9.120;2023-05-21T06:39:14;15.90;;;14.33;;
703;SDS011;335;48.694;9.120;2023-05-21T06:41:40;16.63;;;15.33;;
703;SDS011;335;48.694;9.120;2023-05-21T06:44:05;17.00;;;15.60;;
703;SDS011;335;48.694;9.120;2023-05-21T06:46:30;17.50;;;16.00;;
703;SDS011;335;48.694;9.120;2023-05-21T06:48:56;15.97;;;14.67;;
703;SDS011;335;48.694;9.120;2023-05-21T06:51:21;16.77;;;15.17;;
703;SDS011;335;48.694;9.120;2023-05-21T06:53:47;17.47;;;15.97;;
703;SDS011;335;48.694;9.120;2023-05-21T06:56:12;14.60;;;13.40;;
703;SDS011;335;48.694;9.120;2023-05-21T06:58:37;15.80;;;14.50;;
703;SDS011;335;48.694;9.120;2023-05-21T07:01:03;15.80;;;14.30;;
703;SDS011;335;48.694;9.120;2023-05-21T07:03:28;14.93;;;13.60;;
703;SDS011;335;48.694;9.120;2023-05-21T07:05:53;15.70;;;14.50;;
703;SDS011;335;48.694;9.120;2023-05-21T07:08:19;17.03;;;15.60;;
703;SDS011;335;48.694;9.120;2023-05-21T07:10:44;15.40;;;14.10;;
703;SDS011;335;48.694;9.120;2023-05-21T07:13:10;13.37;;;12.20;;
703;SDS011;335;48.694;9.120;2023-05-21T07:15:39;14.20;;;13.10;;
703;SDS011;335;48.694;9.120;2023-05-21T07:18:04;15.40;;;14.00;;
703;SDS011;335;48.694;9.120;2023-05-21T07:20:29;14.73;;;13.63;;
703;SDS011;335;48.694;9.120;2023-05-21T07:22:55;13.47;;;12.33;;
703;SDS011;335;48.694;9.120;2023-05-21T07:25:20;14.33;;;13.13;;
703;SDS011;335;48.694;9.120;2023-05-21T07:27:45;15.57;;;14.17;;
703;SDS011;335;48.694;9.120;2023-05-21T07:30:11;14.27;;;13.07;;
703;SDS011;335;48.694;9.120;2023-05-21T07:32:38;14.40;;;13.20;;
703;SDS011;335;48.694;9.120;2023-05-21T07:35:03;12.97;;;11.97;;
703;SDS011;335;48.694;9.120;2023-05-21T07:37:29;12.73;;;11.67;;
703;SDS011;335;48.694;9.120;2023-05-21T07:39:57;13.67;;;12.47;;
703;SDS011;335;48.694;9.120;2023-05-21T07:42:23;13.10;;;12.10;;
703;SDS011;335;48.694;9.120;2023-05-21T07:44:51;13.67;;;12.40;;
703;SDS011;335;48.694;9.120;2023-05-21T07:47:17;12.50;;;11.50;;
703;SDS011;335;48.694;9.120;2023-05-21T07:49:42;12.33;;;11.43;;
703;SDS011;335;48.694;9.120;2023-05-21T07:52:08;13.43;;;12.33;;
703;SDS011;335;48.694;9.120;2023-05-21T07:54:33;12.40;;;11.50;;
703;SDS011;335;48.694;9.120;2023-05-21T07:56:58;12.43;;;11.33;;
703;SDS011;335;48.694;9.120;2023-05-21T07:59:25;12.63;;;11.63;;
703;SDS011;335;48.694;9.120;2023-05-21T08:01:51;13.40;;;12.20;;
703;SDS011;335;48.694;9.120;2023-05-21T08:04:16;11.83;;;10.93;;
703;SDS011;335;48.694;9.120;2023-05-21T08:06:41;11.87;;;10.93;;
703;SDS011;335;48.694;9.120;2023-05-21T08:09:07;10.83;;;10.03;;
703;SDS011;335;48.694;9.120;2023-05-21T08:11:32;9.73;;;9.03;;
703;SDS011;335;48.694;9.120;2023-05-21T08:13:58;10.53;;;9.73;;
703;SDS011;335;48.694;9.120;2023-05-21T08:16:23;11.00;;;10.23;;
703;SDS011;335;48.694;9.120;2023-05-21T08:18:49;9.67;;;8.93;;
703;SDS011;335;48.694;9.120;2023-05-21T08:21:14;10.50;;;9.70;;
703;SDS011;335;48.694;9.120;2023-05-21T08:23:42;10.40;;;9.70;;
703;SDS011;335;48.694;9.120;2023-05-21T08:26:07;11.17;;;10.30;;
703;SDS011;335;48.694;9.120;2023-05-21T08:28:33;9.47;;;8.87;;
703;SDS011;335;48.694;9.120;2023-05-21T08:30:59;11.33;;;10.30;;
703;SDS011;335;48.694;9.120;2023-05-21T08:33:25;10.43;;;9.70;;
703;SDS011;335;48.694;9.120;2023-05-21T08:35:51;11.37;;;10.43;;
703;SDS011;335;48.694;9.120;2023-05-21T08:38:16;10.70;;;9.90;;
703;SDS011;335;48.694;9.120;2023-05-21T08:40:42;10.77;;;9.97;;
703;SDS011;335;48.694;9.120;2023-05-21T08:43:09;10.13;;;9.43;;
703;SDS011;335;48.694;9.120;2023-05-21T08:45:37;9.77;;;9.07;;
703;SDS011;335;48.694;9.120;2023-05-21T08:48:06;10.33;;;9.63;;
703;SDS011;335;48.694;9.120;2023-05-21T08:50:33;9.57;;;8.90;;
703;SDS011;335;48.694;9.120;2023-05-21T08:52:58;9.27;;;8.63;;
703;SDS011;335;48.694;9.120;2023-05-21T08:55:25;10.30;;;9.60;;
703;SDS011;335;48.694;9.120;2023-05-21T08:57:51;10.00;;;9.30;;
703;SDS011;335;48.694;9.120;2023-05-21T09:00:18;9.73;;;9.03;;
703;SDS011;335;48.694;9.120;2023-05-21T09:02:45;9.03;;;8.43;;
703;SDS011;335;48.694;9.120;2023-05-21T09:05:10;9.90;;;9.20;;
703;SDS011;335;48.694;9.120;2023-05-21T09:07:38;11.93;;;11.03;;
703;SDS011;335;48.694;9.120;2023-05-21T09:10:10;10.47;;;9.77;;
703;SDS011;335;48.694;9.120;2023-05-21T09:12:37;10.10;;;9.40;;
703;SDS011;335;48.694;9.120;2023-05-21T09:15:02;9.90;;;9.20;;
703;SDS011;335;48.694;9.120;2023-05-21T09:17:29;9.37;;;8.47;;
703;SDS011;335;48.694;9.120;2023-05-21T09:22:42;9.97;;;9.27;;
703;SDS011;335;48.694;9.120;2023-05-21T09:25:09;9.70;;;9.10;;
703;SDS011;335;48.694;9.120;2023-05-21T09:27:36;10.03;;;9.33;;
703;SDS011;335;48.694;9.120;2023-05-21T09:30:02;10.87;;;9.97;;
703;SDS011;335;48.694;9.120;2023-05-21T09:32:28;9.63;;;8.93;;
703;SDS011;335;48.694;9.120;2023-05-21T09:34:53;11.80;;;10.57;;
703;SDS011;335;48.694;9.120;2023-05-21T09:37:19;9.93;;;9.33;;
703;SDS011;335;48.694;9.120;2023-05-21T09:39:45;9.57;;;8.90;;
703;SDS011;335;48.694;9.120;2023-05-21T09:42:11;10.03;;;9.30;;
703;SDS011;335;48.694;9.120;2023-05-21T09:44:37;11.13;;;10.23;;
703;SDS011;335;48.694;9.120;2023-05-21T09:47:02;9.20;;;8.53;;
703;SDS011;335;48.694;9.120;2023-05-21T09:49:27;9.33;;;8.70;;
703;SDS011;335;48.694;9.120;2023-05-21T09:51:54;10.50;;;9.80;;
703;SDS011;335;48.694;9.120;2023-05-21T09:54:21;10.87;;;9.97;;
703;SDS011;335;48.694;9.120;2023-05-21T09:56:47;9.20;;;8.60;;
703;SDS011;335;48.694;9.120;2023-05-21T09:59:12;9.40;;;8.80;;
703;SDS011;335;48.694;9.120;2023-05-21T10:01:37;9.97;;;9.17;;
703;SDS011;335;48.694;9.120;2023-05-21T10:04:05;9.90;;;9.03;;
703;SDS011;335;48.694;9.120;2023-05-21T10:06:31;9.70;;;9.00;;
703;SDS011;335;48.694;9.120;2023-05-21T10:09:00;10.00;;;9.30;;
703;SDS011;335;48.694;9.120;2023-05-21T10:11:29;9.67;;;9.07;;
703;SDS011;335;48.694;9.120;2023-05-21T10:13:56;9.50;;;8.80;;
703;SDS011;335;48.694;9.120;2023-05-21T10:16:25;10.80;;;10.20;;
703;SDS011;335;48.694;9.120;2023-05-21T10:18:50;10.77;;;10.17;;
703;SDS011;335;48.694;9.120;2023-05-21T10:21:18;9.33;;;8.80;;
703;SDS011;335;48.694;9.120;2023-05-21T10:23:44;10.20;;;9.50;;
703;SDS011;335;48.694;9.120;2023-05-21T10:26:10;10.43;;;9.63;;
703;SDS011;335;48.694;9.120;2023-05-21T10:28:36;10.43;;;9.73;;
703;SDS011;335;48.694;9.120;2023-05-21T10:31:02;9.10;;;8.50;;
703;SDS011;335;48.694;9.120;2023-05-21T10:33:28;9.93;;;9.23;;
703;SDS011;335;48.694;9.120;2023-05-21T10:35:53;9.97;;;9.30;;
703;SDS011;335;48.694;9.120;2023-05-21T10:38:22;10.33;;;9.57;;
703;SDS011;335;48.694;9.120;2023-05-21T10:40:48;10.07;;;9.37;;
703;SDS011;335;48.694;9.120;2023-05-21T10:46:22;8.77;;;8.27;;
703;SDS011;335;48.694;9.120;2023-05-21T10:57:14;8.40;;;7.90;;
703;SDS011;335;48.694;9.120;2023-05-21T11:00:00;8.10;;;7.70;;
703;SDS011;335;48.694;9.120;2023-05-21T11:02:26;7.53;;;7.13;;
703;SDS011;335;48.694;9.120;2023-05-21T11:04:59;7.93;;;7.50;;
703;SDS011;335;48.694;9.120;2023-05-21T11:13:13;8.20;;;7.80;;
703;SDS011;335;48.694;9.120;2023-05-21T11:21:05;7.70;;;7.30;;
703;SDS011;335;48.694;9.120;2023-05-21T11:26:25;7.73;;;7.33;;
703;SDS011;335;48.694;9.120;2023-05-21T11:29:10;7.40;;;6.90;;
703;SDS011;335;48.694;9.120;2023-05-21T11:31:36;8.10;;;7.30;;
703;SDS011;335;48.694;9.120;2023-05-21T11:36:43;8.20;;;7.60;;
703;SDS011;335;48.694;9.120;2023-05-21T11:39:16;8.23;;;7.73;;
703;SDS011;335;48.694;9.120;2023-05-21T11:41:52;7.97;;;7.17;;
703;SDS011;335;48.694;9.120;2023-05-21T11:47:07;9.27;;;8.77;;
703;SDS011;335;48.694;9.120;2023-05-21T11:49:34;8.97;;;8.30;;
703;SDS011;335;48.694;9.120;2023-05-21T11:52:00;8.47;;;7.77;;
703;SDS011;335;48.694;9.120;2023-05-21T11:54:27;9.10;;;8.33;;
703;SDS011;335;48.694;9.120;2023-05-21T11:56:53;10.60;;;9.80;;
703;SDS011;335;48.694;9.120;2023-05-21T11:59:19;9.43;;;8.93;;
703;SDS011;335;48.694;9.120;2023-05-21T12:01:44;9.20;;;8.70;;
703;SDS011;335;48.694;9.120;2023-05-21T12:04:10;8.87;;;8.27;;
703;SDS011;335;48.694;9.120;2023-05-21T12:06:36;10.17;;;9.57;;
703;SDS011;335;48.694;9.120;2023-05-21T12:09:02;10.10;;;9.53;;
703;SDS011;335;48.694;9.120;2023-05-21T12:11:28;9.93;;;9.23;;
703;SDS011;335;48.694;9.120;2023-05-21T12:13:54;9.73;;;9.00;;
703;SDS011;335;48.694;9.120;2023-05-21T12:16:20;9.20;;;8.60;;
703;SDS011;335;48.694;9.120;2023-05-21T12:18:46;9.23;;;8.57;;
703;SDS011;335;48.694;9.120;2023-05-21T12:21:12;8.67;;;8.10;;
703;SDS011;335;48.694;9.120;2023-05-21T12:23:37;8.90;;;8.30;;
703;SDS011;335;48.694;9.120;2023-05-21T12:26:02;8.90;;;8.40;;
703;SDS011;335;48.694;9.120;2023-05-21T12:28:28;9.20;;;8.60;;
703;SDS011;335;48.694;9.120;2023-05-21T12:30:54;8.83;;;8.33;;
703;SDS011;335;48.694;9.120;2023-05-21T12:33:19;8.70;;;8.20;;
703;SDS011;335;48.694;9.120;2023-05-21T12:35:45;9.27;;;8.67;;
703;SDS011;335;48.694;9.120;2023-05-21T12:38:13;9.50;;;8.80;;
703;SDS011;335;48.694;9.120;2023-05-21T12:40:39;9.93;;;9.23;;
703;SDS011;335;48.694;9.120;2023-05-21T12:43:05;9.93;;;9.23;;
703;SDS011;335;48.694;9.120;2023-05-21T12:45:31;8.93;;;8.43;;
703;SDS011;335;48.694;9.120;2023-05-21T12:47:59;8.13;;;7.73;;
703;SDS011;335;48.694;9.120;2023-05-21T12:50:25;9.13;;;8.60;;
703;SDS011;335;48.694;9.120;2023-05-21T12:52:52;8.83;;;8.30;;
703;SDS011;335;48.694;9.120;2023-05-21T12:55:18;9.10;;;8.50;;
703;SDS011;335;48.694;9.120;2023-05-21T12:57:46;9.57;;;9.07;;
703;SDS011;335;48.694;9.120;2023-05-21T13:00:11;8.73;;;8.23;;
703;SDS011;335;48.694;9.120;2023-05-21T13:02:38;9.07;;;8.47;;
703;SDS011;335;48.694;9.120;2023-05-21T13:05:08;8.47;;;7.97;;
703;SDS011;335;48.694;9.120;2023-05-21T13:07:35;7.97;;;7.50;;
703;SDS011;335;48.694;9.120;2023-05-21T13:10:02;8.20;;;7.80;;
703;SDS011;335;48.694;9.120;2023-05-21T13:12:29;8.80;;;8.10;;
703;SDS011;335;48.694;9.120;2023-05-21T13:14:56;8.10;;;7.70;;
703;SDS011;335;48.694;9.120;2023-05-21T13:17:22;8.13;;;7.53;;
703;SDS011;335;48.694;9.120;2023-05-21T13:22:36;7.43;;;7.03;;
703;SDS011;335;48.694;9.120;2023-05-21T13:25:10;7.70;;;6.97;;
703;SDS011;335;48.694;9.120;2023-05-21T13:27:39;7.17;;;6.77;;
703;SDS011;335;48.694;9.120;2023-05-21T13:30:05;6.97;;;6.57;;
703;SDS011;335;48.694;9.120;2023-05-21T13:32:31;6.97;;;6.57;;
703;SDS011;335;48.694;9.120;2023-05-21T13:34:56;6.67;;;6.20;;
703;SDS011;335;48.694;9.120;2023-05-21T13:37:21;6.50;;;6.10;;
703;SDS011;335;48.694;9.120;2023-05-21T13:39:47;7.00;;;6.53;;
703;SDS011;335;48.694;9.120;2023-05-21T13:42:12;6.93;;;6.33;;
703;SDS011;335;48.694;9.120;2023-05-21T13:44:37;7.63;;;7.03;;
703;SDS011;335;48.694;9.120;2023-05-21T13:47:03;7.03;;;6.53;;
703;SDS011;335;48.694;9.120;2023-05-21T13:49:29;7.37;;;6.70;;
703;SDS011;335;48.694;9.120;2023-05-21T13:51:55;6.50;;;5.90;;
703;SDS011;335;48.694;9.120;2023-05-21T13:54:22;6.60;;;6.10;;
703;SDS011;335;48.694;9.120;2023-05-21T13:56:47;7.17;;;6.70;;
703;SDS011;335;48.694;9.120;2023-05-21T13:59:12;7.43;;;6.93;;
703;SDS011;335;48.694;9.120;2023-05-21T14:01:38;6.73;;;6.23;;
703;SDS011;335;48.694;9.120;2023-05-21T14:04:03;6.83;;;6.33;;
703;SDS011;335;48.694;9.120;2023-05-21T14:06:32;6.57;;;6.17;;
703;SDS011;335;48.694;9.120;2023-05-21T14:08:58;6.73;;;6.23;;
703;SDS011;335;48.694;9.120;2023-05-21T14:11:24;6.67;;;6.27;;
703;SDS011;335;48.694;9.120;2023-05-21T14:13:50;6.60;;;6.20;;
703;SDS011;335;48.694;9.120;2023-05-21T14:16:16;7.23;;;6.83;;
703;SDS011;335;48.694;9.120;2023-05-21T14:18:42;6.60;;;6.20;;
703;SDS011;335;48.694;9.120;2023-05-21T14:21:07;6.43;;;6.13;;
703;SDS011;335;48.694;9.120;2023-05-21T14:23:33;6.50;;;6.10;;
703;SDS011;335;48.694;9.120;2023-05-21T14:25:58;6.63;;;5.93;;
703;SDS011;335;48.694;9.120;2023-05-21T14:28:23;6.60;;;6.20;;
703;SDS011;335;48.694;9.120;2023-05-21T14:30:48;7.87;;;7.30;;
703;SDS011;335;48.694;9.120;2023-05-21T14:33:14;6.50;;;6.10;;
703;SDS011;335;48.694;9.120;2023-05-21T14:35:40;7.00;;;6.60;;
703;SDS011;335;48.694;9.120;2023-05-21T14:38:07;6.50;;;6.20;;
703;SDS011;335;48.694;9.120;2023-05-21T14:40:33;7.60;;;7.10;;
703;SDS011;335;48.694;9.120;2023-05-21T14:42:58;6.87;;;6.20;;
703;SDS011;335;48.694;9.120;2023-05-21T14:45:23;6.00;;;5.70;;
703;SDS011;335;48.694;9.120;2023-05-21T14:47:49;5.93;;;5.53;;
703;SDS011;335;48.694;9.120;2023-05-21T14:50:14;6.40;;;5.97;;
703;SDS011;335;48.694;9.120;2023-05-21T14:52:40;6.07;;;5.70;;
703;SDS011;335;48.694;9.120;2023-05-21T14:55:07;5.53;;;5.23;;
703;SDS011;335;48.694;9.120;2023-05-21T14:57:32;5.83;;;5.43;;
703;SDS011;335;48.694;9.120;2023-05-21T14:59:58;5.00;;;4.77;;
703;SDS011;335;48.694;9.120;2023-05-21T15:02:24;6.40;;;5.90;;
703;SDS011;335;48.694;9.120;2023-05-21T15:04:49;5.60;;;5.10;;
703;SDS011;335;48.694;9.120;2023-05-21T15:07:15;5.23;;;4.80;;
703;SDS011;335;48.694;9.120;2023-05-21T15:09:40;5.30;;;5.00;;
703;SDS011;335;48.694;9.120;2023-05-21T15:12:05;5.97;;;5.53;;
703;SDS011;335;48.694;9.120;2023-05-21T15:14:31;5.40;;;5.10;;
703;SDS011;335;48.694;9.120;2023-05-21T15:16:56;5.47;;;5.17;;
703;SDS011;335;48.694;9.120;2023-05-21T15:19:21;5.00;;;4.70;;
703;SDS011;335;48.694;9.120;2023-05-21T15:21:46;5.53;;;5.13;;
703;SDS011;335;48.694;9.120;2023-05-21T15:24:12;5.97;;;5.43;;
703;SDS011;335;48.694;9.120;2023-05-21T15:26:37;5.90;;;5.50;;
703;SDS011;335;48.694;9.120;2023-05-21T15:29:02;5.90;;;5.40;;
703;SDS011;335;48.694;9.120;2023-05-21T15:31:29;5.93;;;5.57;;
703;SDS011;335;48.694;9.120;2023-05-21T15:33:55;5.27;;;4.97;;
703;SDS011;335;48.694;9.120;2023-05-21T15:36:20;5.43;;;5.13;;
703;SDS011;335;48.694;9.120;2023-05-21T15:38:45;4.97;;;4.67;;
703;SDS011;335;48.694;9.120;2023-05-21T15:41:11;4.67;;;4.37;;
703;SDS011;335;48.694;9.120;2023-05-21T15:43:36;5.50;;;5.10;;
703;SDS011;335;48.694;9.120;2023-05-21T15:46:02;5.07;;;4.77;;
703;SDS011;335;48.694;9.120;2023-05-21T15:48:27;5.37;;;4.87;;
703;SDS011;335;48.694;9.120;2023-05-21T15:50:52;4.83;;;4.57;;
703;SDS011;335;48.694;9.120;2023-05-21T15:53:18;4.57;;;4.30;;
703;SDS011;335;48.694;9.120;2023-05-21T15:55:43;5.63;;;5.03;;
703;SDS011;335;48.694;9.120;2023-05-21T15:58:09;4.87;;;4.60;;
703;SDS011;335;48.694;9.120;2023-05-21T16:00:34;4.90;;;4.63;;
703;SDS011;335;48.694;9.120;2023-05-21T16:02:59;4.73;;;4.47;;